createdAt,value
2022-10-18T00:00:04.652Z,26.20
2022-10-18T00:01:04.659Z,34.10
2022-10-18T00:02:04.737Z,28.80
2022-10-18T00:03:04.613Z,27.00
2022-10-18T00:04:04.689Z,23.00
2022-10-18T00:05:04.602Z,29.50
2022-10-18T00:06:04.609Z,28.10
2022-10-18T00:07:04.820Z,23.30
2022-10-18T00:08:04.554Z,27.30
2022-10-18T00:09:04.539Z,29.80
2022-10-18T00:10:04.527Z,24.70
2022-10-18T00:11:04.579Z,29.50
2022-10-18T00:12:04.504Z,25.70
2022-10-18T00:13:04.538Z,31.60
2022-10-18T00:14:04.466Z,33.30
2022-10-18T00:15:04.457Z,23.80
2022-10-18T00:16:04.426Z,32.70
2022-10-18T00:17:04.467Z,26.60
2022-10-18T00:18:04.428Z,30.70
2022-10-18T00:19:04.399Z,28.70
2022-10-18T00:20:05.330Z,29.80
2022-10-18T00:21:04.410Z,29.70
2022-10-18T00:22:04.352Z,30.60
2022-10-18T00:23:04.338Z,27.70
2022-10-18T00:24:04.361Z,33.50
2022-10-18T00:25:04.316Z,31.30
2022-10-18T00:26:04.468Z,30.90
2022-10-18T00:27:04.280Z,25.30
2022-10-18T00:28:04.272Z,28.50
2022-10-18T00:29:04.366Z,25.90
2022-10-18T00:30:04.255Z,27.80
2022-10-18T00:31:04.211Z,27.50
2022-10-18T00:32:04.204Z,32.70
2022-10-18T00:33:04.279Z,33.00
2022-10-18T00:34:04.182Z,31.80
2022-10-18T00:35:04.222Z,33.60
2022-10-18T00:36:04.171Z,28.60
2022-10-18T00:37:04.201Z,31.70
2022-10-18T00:38:04.174Z,23.70
2022-10-18T00:39:04.096Z,23.90
2022-10-18T00:40:04.100Z,28.60
2022-10-18T00:41:04.093Z,32.80
2022-10-18T00:42:04.104Z,29.30
2022-10-18T00:43:04.045Z,30.30
2022-10-18T00:44:04.129Z,34.40
2022-10-18T00:45:04.004Z,32.00
2022-10-18T00:46:04.434Z,29.40
2022-10-18T00:47:03.987Z,32.10
2022-10-18T00:48:03.966Z,30.40
2022-10-18T00:49:03.970Z,32.40
2022-10-18T00:50:03.977Z,34.40
2022-10-18T00:51:03.951Z,33.60
2022-10-18T00:52:03.922Z,30.70
2022-10-18T00:53:03.902Z,30.60
2022-10-18T00:54:03.891Z,30.30
2022-10-18T00:55:03.917Z,39.90
2022-10-18T00:56:03.858Z,40.40
2022-10-18T00:57:03.890Z,30.30
2022-10-18T00:58:03.872Z,31.40
2022-10-18T00:59:03.820Z,30.50
2022-10-18T01:00:03.824Z,35.40
2022-10-18T01:01:03.808Z,33.20
2022-10-18T01:02:03.836Z,35.00
2022-10-18T01:03:03.780Z,44.40
2022-10-18T01:04:03.731Z,33.90
2022-10-18T01:05:03.721Z,40.40
2022-10-18T01:06:03.732Z,45.90
2022-10-18T01:07:03.784Z,40.40
2022-10-18T01:08:05.163Z,47.90
2022-10-18T01:09:03.701Z,47.70
2022-10-18T01:10:03.672Z,43.00
2022-10-18T01:11:03.712Z,29.00
2022-10-18T01:12:03.713Z,39.90
2022-10-18T01:13:03.698Z,43.70
2022-10-18T01:14:03.617Z,44.20
2022-10-18T01:15:03.632Z,37.10
2022-10-18T01:16:04.422Z,45.10
2022-10-18T01:17:04.381Z,45.00
2022-10-18T01:18:03.605Z,42.50
2022-10-18T01:19:03.557Z,46.70
2022-10-18T01:20:03.545Z,42.60
2022-10-18T01:21:03.507Z,43.00
2022-10-18T01:22:03.567Z,42.80
2022-10-18T01:23:03.497Z,42.50
2022-10-18T01:24:03.850Z,39.60
2022-10-18T01:26:04.369Z,44.20
2022-10-18T01:27:03.478Z,44.30
2022-10-18T01:28:03.429Z,45.40
2022-10-18T01:29:03.439Z,43.10
2022-10-18T01:30:03.389Z,45.70
2022-10-18T01:31:04.373Z,45.60
2022-10-18T01:32:03.349Z,41.70
2022-10-18T01:33:03.453Z,40.60
2022-10-18T01:34:03.338Z,45.40
2022-10-18T01:35:03.351Z,42.90
2022-10-18T01:36:04.211Z,45.30
2022-10-18T01:37:03.324Z,47.50
2022-10-18T01:38:03.292Z,44.70
2022-10-18T01:39:03.261Z,44.80
2022-10-18T01:40:04.051Z,43.40
2022-10-18T01:41:03.272Z,41.70
2022-10-18T01:42:03.257Z,38.20
2022-10-18T01:43:03.322Z,46.10
2022-10-18T01:44:03.242Z,37.30
2022-10-18T01:45:03.195Z,43.10
2022-10-18T01:46:03.195Z,47.70
2022-10-18T01:47:03.174Z,44.40
2022-10-18T01:48:03.144Z,54.30
2022-10-18T01:49:03.116Z,52.10
2022-10-18T01:50:03.106Z,48.30
2022-10-18T01:51:03.126Z,46.90
2022-10-18T01:52:03.155Z,45.20
2022-10-18T01:53:03.107Z,43.20
2022-10-18T01:54:03.065Z,42.20
2022-10-18T01:55:03.067Z,43.50
2022-10-18T01:56:03.058Z,49.10
2022-10-18T01:57:03.002Z,48.60
2022-10-18T01:58:03.863Z,44.90
2022-10-18T01:59:02.981Z,46.70
2022-10-18T02:00:02.977Z,48.90
2022-10-18T02:01:03.019Z,49.20
2022-10-18T02:02:02.927Z,50.30
2022-10-18T02:03:03.697Z,53.70
2022-10-18T02:04:02.899Z,43.60
2022-10-18T02:05:03.731Z,48.20
2022-10-18T02:06:02.889Z,52.60
2022-10-18T02:07:03.807Z,49.60
2022-10-18T02:08:12.335Z,50.00
2022-10-18T02:09:03.840Z,46.80
2022-10-18T02:10:02.949Z,49.20
2022-10-18T02:11:03.662Z,46.90
2022-10-18T02:12:02.790Z,51.00
2022-10-18T02:13:02.781Z,46.00
2022-10-18T02:14:03.671Z,51.80
2022-10-18T02:15:02.793Z,50.10
2022-10-18T02:16:02.861Z,46.60
2022-10-18T02:17:02.771Z,48.80
2022-10-18T02:18:03.589Z,55.80
2022-10-18T02:19:03.670Z,53.70
2022-10-18T02:20:03.581Z,54.40
2022-10-18T02:21:03.471Z,59.60
2022-10-18T02:22:02.681Z,58.00
2022-10-18T02:23:02.772Z,51.40
2022-10-18T02:24:02.643Z,55.10
2022-10-18T02:25:02.633Z,50.40
2022-10-18T02:26:02.664Z,58.10
2022-10-18T02:27:03.186Z,53.90
2022-10-18T02:28:02.563Z,44.70
2022-10-18T02:29:02.614Z,54.50
2022-10-18T02:30:03.305Z,62.80
2022-10-18T02:32:18.830Z,49.20
2022-10-18T02:33:18.060Z,52.90
2022-10-18T02:34:18.979Z,59.80
2022-10-18T02:35:20.841Z,46.70
2022-10-18T02:36:18.581Z,63.70
2022-10-18T02:37:19.319Z,73.80
2022-10-18T02:38:19.730Z,63.00
2022-10-18T02:39:19.710Z,66.20
2022-10-18T02:40:18.877Z,63.00
2022-10-18T02:41:19.747Z,57.40
2022-10-18T02:42:18.520Z,59.70
2022-10-18T02:43:19.226Z,69.20
2022-10-18T02:44:41.903Z,63.80
2022-10-18T02:45:21.724Z,61.00
2022-10-18T02:46:18.439Z,67.80
2022-10-18T02:47:17.591Z,54.30
2022-10-18T02:48:17.541Z,61.00
2022-10-18T02:49:17.097Z,55.80
2022-10-18T02:50:17.095Z,71.30
2022-10-18T02:51:17.762Z,51.20
2022-10-18T02:52:17.075Z,54.90
2022-10-18T02:53:18.032Z,55.70
2022-10-18T02:54:17.653Z,59.70
2022-10-18T02:55:17.119Z,61.30
2022-10-18T02:56:17.012Z,64.80
2022-10-18T02:57:17.929Z,62.40
2022-10-18T02:58:17.001Z,59.60
2022-10-18T02:59:16.995Z,58.10
2022-10-18T03:00:16.946Z,58.00
2022-10-18T03:01:16.989Z,56.70
2022-10-18T03:02:16.915Z,65.50
2022-10-18T03:03:16.981Z,53.60
2022-10-18T03:04:17.404Z,50.40
2022-10-18T03:05:16.926Z,71.20
2022-10-18T03:06:16.876Z,63.90
2022-10-18T03:07:16.856Z,71.70
2022-10-18T03:08:16.870Z,61.30
2022-10-18T03:09:16.899Z,66.90
2022-10-18T03:10:16.861Z,60.70
2022-10-18T03:11:16.829Z,61.70
2022-10-18T03:12:16.845Z,56.00
2022-10-18T03:13:16.852Z,72.70
2022-10-18T03:14:16.791Z,73.30
2022-10-18T03:15:16.749Z,73.30
2022-10-18T03:16:16.750Z,51.30
2022-10-18T03:17:17.713Z,58.50
2022-10-18T03:18:16.704Z,60.20
2022-10-18T03:19:16.729Z,57.90
2022-10-18T03:20:16.673Z,66.30
2022-10-18T03:21:16.663Z,62.00
2022-10-18T03:22:16.771Z,53.90
2022-10-18T03:23:16.679Z,68.70
2022-10-18T03:24:16.640Z,70.50
2022-10-18T03:25:16.629Z,65.40
2022-10-18T03:26:16.663Z,74.00
2022-10-18T03:27:16.582Z,47.30
2022-10-18T03:28:16.557Z,70.90
2022-10-18T03:29:16.570Z,58.20
2022-10-18T03:30:16.536Z,48.90
2022-10-18T03:31:16.545Z,62.60
2022-10-18T03:32:16.545Z,60.70
2022-10-18T03:33:16.523Z,52.90
2022-10-18T03:34:16.475Z,63.00
2022-10-18T03:35:16.509Z,72.40
2022-10-18T03:36:16.518Z,67.30
2022-10-18T03:37:17.875Z,58.90
2022-10-18T03:38:16.445Z,63.10
2022-10-18T03:39:16.407Z,64.90
2022-10-18T03:40:17.355Z,62.90
2022-10-18T03:41:16.386Z,62.80
2022-10-18T03:42:16.377Z,65.50
2022-10-18T03:43:16.784Z,61.60
2022-10-18T03:44:16.359Z,60.80
2022-10-18T03:45:16.314Z,75.40
2022-10-18T03:46:16.375Z,61.50
2022-10-18T03:47:16.318Z,58.90
2022-10-18T03:48:16.296Z,65.50
2022-10-18T03:49:16.317Z,50.90
2022-10-18T03:50:16.247Z,47.50
2022-10-18T03:51:16.271Z,53.90
2022-10-18T03:52:16.261Z,58.60
2022-10-18T03:53:16.228Z,53.80
2022-10-18T03:54:16.211Z,52.90
2022-10-18T03:55:16.193Z,59.60
2022-10-18T03:56:16.203Z,60.30
2022-10-18T03:57:16.181Z,54.00
2022-10-18T03:58:16.134Z,57.70
2022-10-18T03:59:16.155Z,56.70
2022-10-18T04:00:16.179Z,59.30
2022-10-18T04:01:16.199Z,52.40
2022-10-18T04:02:16.091Z,55.10
2022-10-18T04:03:16.195Z,68.10
2022-10-18T04:04:16.084Z,60.60
2022-10-18T04:05:16.103Z,51.10
2022-10-18T04:06:16.496Z,58.50
2022-10-18T04:07:16.033Z,54.70
2022-10-18T04:08:16.044Z,51.20
2022-10-18T04:09:16.046Z,48.90
2022-10-18T04:10:15.967Z,55.60
2022-10-18T04:11:15.953Z,51.80
2022-10-18T04:12:15.964Z,56.90
2022-10-18T04:13:15.953Z,50.30
2022-10-18T04:14:15.976Z,60.30
2022-10-18T04:15:15.946Z,69.30
2022-10-18T04:16:15.943Z,66.70
2022-10-18T04:17:15.884Z,55.30
2022-10-18T04:18:15.857Z,69.30
2022-10-18T04:19:15.886Z,59.70
2022-10-18T04:20:15.836Z,66.40
2022-10-18T04:21:16.750Z,61.50
2022-10-18T04:22:15.809Z,65.30
2022-10-18T04:23:15.776Z,59.90
2022-10-18T04:24:15.789Z,61.30
2022-10-18T04:25:15.782Z,64.80
2022-10-18T04:26:15.929Z,66.90
2022-10-18T04:27:15.730Z,57.50
2022-10-18T04:28:15.721Z,60.80
2022-10-18T04:29:15.755Z,62.60
2022-10-18T04:30:15.717Z,63.50
2022-10-18T04:31:15.701Z,60.90
2022-10-18T04:32:15.669Z,57.50
2022-10-18T04:33:15.646Z,55.10
2022-10-18T04:34:15.670Z,63.80
2022-10-18T04:35:15.673Z,57.70
2022-10-18T04:36:15.658Z,62.10
2022-10-18T04:37:16.339Z,61.10
2022-10-18T04:38:15.590Z,71.20
2022-10-18T04:39:15.810Z,66.00
2022-10-18T04:40:15.588Z,66.90
2022-10-18T04:41:15.545Z,60.20
2022-10-18T04:42:15.540Z,79.70
2022-10-18T04:43:15.512Z,66.20
2022-10-18T04:44:15.502Z,71.20
2022-10-18T04:45:15.491Z,67.80
2022-10-18T04:46:15.502Z,68.10
2022-10-18T04:47:15.513Z,71.30
2022-10-18T04:48:15.442Z,63.50
2022-10-18T04:49:15.445Z,61.80
2022-10-18T04:50:15.408Z,56.90
2022-10-18T04:51:15.398Z,63.40
2022-10-18T04:52:15.452Z,64.50
2022-10-18T04:53:15.390Z,71.10
2022-10-18T04:54:15.373Z,60.40
2022-10-18T04:55:15.355Z,55.90
2022-10-18T04:56:15.336Z,63.20
2022-10-18T04:57:15.313Z,66.50
2022-10-18T04:58:15.375Z,65.90
2022-10-18T04:59:15.284Z,72.90
2022-10-18T05:00:15.289Z,70.90
2022-10-18T05:01:16.755Z,70.20
2022-10-18T05:02:15.292Z,71.10
2022-10-18T05:03:15.258Z,67.00
2022-10-18T05:04:15.319Z,70.90
2022-10-18T05:05:16.153Z,65.90
2022-10-18T05:06:15.214Z,62.50
2022-10-18T05:07:16.207Z,61.10
2022-10-18T05:08:15.167Z,67.30
2022-10-18T05:09:16.050Z,82.80
2022-10-18T05:10:15.170Z,76.10
2022-10-18T05:11:15.140Z,73.40
2022-10-18T05:12:15.108Z,62.90
2022-10-18T05:13:16.109Z,70.20
2022-10-18T05:14:16.016Z,71.10
2022-10-18T05:15:15.074Z,61.10
2022-10-18T05:16:15.379Z,59.40
2022-10-18T05:17:15.051Z,56.80
2022-10-18T05:18:15.509Z,70.10
2022-10-18T05:19:15.581Z,67.60
2022-10-18T05:21:14.990Z,70.00
2022-10-18T05:22:14.984Z,67.80
2022-10-18T05:23:15.080Z,68.90
2022-10-18T05:24:14.975Z,68.60
2022-10-18T05:25:14.921Z,72.50
2022-10-18T05:26:15.041Z,49.40
2022-10-18T05:27:14.988Z,61.70
2022-10-18T05:28:38.126Z,67.50
2022-10-18T05:29:16.075Z,70.80
2022-10-18T05:30:15.844Z,64.90
2022-10-18T05:31:15.693Z,77.80
2022-10-18T05:32:14.856Z,77.60
2022-10-18T05:33:14.825Z,63.40
2022-10-18T05:34:14.816Z,63.30
2022-10-18T05:35:14.795Z,63.40
2022-10-18T05:36:14.947Z,65.70
2022-10-18T05:37:14.767Z,59.00
2022-10-18T05:38:15.794Z,57.60
2022-10-18T05:39:14.747Z,73.40
2022-10-18T05:40:14.815Z,48.80
2022-10-18T05:41:14.724Z,59.70
2022-10-18T05:42:14.819Z,50.40
2022-10-18T05:43:14.689Z,69.90
2022-10-18T05:44:14.780Z,73.90
2022-10-18T05:45:14.680Z,63.30
2022-10-18T05:46:15.816Z,55.60
2022-10-18T05:47:14.615Z,75.50
2022-10-18T05:48:14.699Z,68.20
2022-10-18T05:49:14.629Z,65.60
2022-10-18T05:50:14.648Z,80.60
2022-10-18T05:51:14.639Z,80.90
2022-10-18T05:52:14.561Z,73.40
2022-10-18T05:53:35.113Z,80.10
2022-10-18T05:54:15.535Z,70.00
2022-10-18T05:55:15.483Z,71.70
2022-10-18T05:56:14.553Z,74.80
2022-10-18T05:57:14.814Z,73.80
2022-10-18T05:58:15.428Z,75.50
2022-10-18T05:59:14.480Z,79.50
2022-10-18T06:00:14.771Z,78.20
2022-10-18T06:01:14.749Z,71.60
2022-10-18T06:02:14.720Z,72.50
2022-10-18T06:03:15.412Z,59.60
2022-10-18T06:04:14.396Z,72.70
2022-10-18T06:05:14.457Z,74.20
2022-10-18T06:06:14.684Z,70.80
2022-10-18T06:07:14.735Z,62.20
2022-10-18T06:08:14.706Z,77.70
2022-10-18T06:09:14.775Z,83.60
2022-10-18T06:10:14.738Z,66.60
2022-10-18T06:11:14.698Z,76.10
2022-10-18T06:12:14.777Z,66.00
2022-10-18T06:13:14.757Z,66.20
2022-10-18T06:14:14.326Z,75.40
2022-10-18T06:15:14.263Z,74.80
2022-10-18T06:16:15.240Z,79.80
2022-10-18T06:17:14.218Z,75.80
2022-10-18T06:18:14.262Z,67.30
2022-10-18T06:19:15.150Z,73.90
2022-10-18T06:20:14.174Z,63.50
2022-10-18T06:21:14.148Z,71.40
2022-10-18T06:22:14.174Z,75.20
2022-10-18T06:23:14.620Z,69.50
2022-10-18T06:24:14.118Z,71.50
2022-10-18T06:25:14.097Z,75.40
2022-10-18T06:26:14.089Z,74.90
2022-10-18T06:27:14.121Z,77.00
2022-10-18T06:28:14.100Z,69.30
2022-10-18T06:29:14.161Z,77.70
2022-10-18T06:30:14.038Z,72.40
2022-10-18T06:31:15.042Z,66.60
2022-10-18T06:32:14.022Z,67.10
2022-10-18T06:33:13.984Z,67.50
2022-10-18T06:34:13.991Z,61.00
2022-10-18T06:35:13.984Z,64.40
2022-10-18T06:36:13.951Z,62.10
2022-10-18T06:37:13.937Z,64.60
2022-10-18T06:38:13.905Z,65.20
2022-10-18T06:39:13.923Z,64.20
2022-10-18T06:40:13.895Z,54.80
2022-10-18T06:41:13.843Z,64.40
2022-10-18T06:42:13.872Z,71.00
2022-10-18T06:43:20.981Z,64.50
2022-10-18T06:44:14.896Z,58.40
2022-10-18T06:45:13.804Z,66.40
2022-10-18T06:46:13.792Z,65.30
2022-10-18T06:47:13.799Z,56.00
2022-10-18T06:48:13.790Z,71.30
2022-10-18T06:49:15.333Z,57.90
2022-10-18T06:50:13.756Z,70.90
2022-10-18T06:51:13.715Z,67.10
2022-10-18T06:52:13.704Z,63.00
2022-10-18T06:53:13.687Z,69.60
2022-10-18T06:54:17.876Z,64.10
2022-10-18T06:55:13.668Z,57.40
2022-10-18T06:56:14.157Z,58.40
2022-10-18T06:57:13.626Z,65.10
2022-10-18T06:58:13.618Z,65.00
2022-10-18T06:59:13.673Z,65.10
2022-10-18T07:00:14.537Z,71.00
2022-10-18T07:01:13.610Z,68.50
2022-10-18T07:02:13.603Z,64.00
2022-10-18T07:03:13.557Z,63.30
2022-10-18T07:04:13.548Z,69.90
2022-10-18T07:05:13.519Z,54.00
2022-10-18T07:06:14.148Z,64.10
2022-10-18T07:07:13.519Z,62.00
2022-10-18T07:08:13.479Z,64.60
2022-10-18T07:09:13.471Z,61.60
2022-10-18T07:10:13.489Z,52.70
2022-10-18T07:11:13.439Z,50.20
2022-10-18T07:12:13.460Z,64.20
2022-10-18T07:13:31.508Z,59.10
2022-10-18T07:14:16.484Z,54.30
2022-10-18T07:15:13.414Z,51.70
2022-10-18T07:16:17.305Z,55.70
2022-10-18T07:17:14.803Z,52.60
2022-10-18T07:18:13.364Z,48.40
2022-10-18T07:19:13.426Z,44.90
2022-10-18T07:20:13.324Z,46.10
2022-10-18T07:21:13.360Z,45.30
2022-10-18T07:22:13.324Z,46.90
2022-10-18T07:23:13.307Z,44.10
2022-10-18T07:24:13.263Z,46.90
2022-10-18T07:25:13.274Z,43.40
2022-10-18T07:26:13.234Z,47.20
2022-10-18T07:27:13.264Z,46.10
2022-10-18T07:28:13.245Z,47.70
2022-10-18T07:29:13.198Z,44.70
2022-10-18T07:30:13.174Z,40.50
2022-10-18T07:31:13.186Z,47.50
2022-10-18T07:32:13.186Z,48.50
2022-10-18T07:33:13.136Z,45.70
2022-10-18T07:34:13.166Z,44.70
2022-10-18T07:35:13.203Z,43.50
2022-10-18T07:36:13.130Z,44.20
2022-10-18T07:37:13.117Z,44.50
2022-10-18T07:38:13.087Z,38.30
2022-10-18T07:39:13.157Z,38.50
2022-10-18T07:40:13.358Z,43.60
2022-10-18T07:41:13.027Z,43.60
2022-10-18T07:42:13.067Z,39.00
2022-10-18T07:43:13.008Z,35.40
2022-10-18T07:44:13.008Z,41.80
2022-10-18T07:45:12.999Z,43.90
2022-10-18T07:46:13.362Z,34.10
2022-10-18T07:47:12.972Z,37.70
2022-10-18T07:48:12.964Z,41.40
2022-10-18T07:49:12.996Z,41.80
2022-10-18T07:50:12.920Z,45.50
2022-10-18T07:51:12.934Z,34.00
2022-10-18T07:52:12.871Z,34.10
2022-10-18T07:53:14.755Z,39.10
2022-10-18T07:54:13.746Z,28.90
2022-10-18T07:55:14.352Z,27.00
2022-10-18T07:56:12.811Z,24.90
2022-10-18T07:57:13.010Z,31.60
2022-10-18T07:58:12.786Z,36.80
2022-10-18T07:59:12.910Z,40.30
2022-10-18T08:00:12.813Z,30.60
2022-10-18T08:01:13.820Z,28.40
2022-10-18T08:02:12.755Z,33.50
2022-10-18T08:54:04.396Z,33.20
2022-10-18T08:55:04.358Z,33.10
2022-10-18T08:56:04.383Z,30.70
2022-10-18T08:57:04.386Z,34.50
2022-10-18T08:58:04.359Z,36.50
2022-10-18T08:59:04.327Z,32.20
2022-10-18T09:00:06.087Z,26.00
2022-10-18T09:01:11.199Z,32.50
2022-10-18T09:02:04.799Z,29.70
2022-10-18T09:03:05.497Z,32.20
2022-10-18T09:04:04.657Z,42.20
2022-10-18T09:05:05.720Z,28.10
2022-10-18T09:06:04.596Z,31.40
2022-10-18T09:07:04.360Z,35.00
2022-10-18T09:08:04.193Z,31.10
2022-10-18T09:09:04.218Z,36.80
2022-10-18T09:10:04.273Z,37.20
2022-10-18T09:11:05.047Z,34.10
2022-10-18T09:12:04.153Z,32.50
2022-10-18T09:13:06.137Z,28.80
2022-10-18T09:14:04.197Z,36.70
2022-10-18T09:15:04.124Z,34.30
2022-10-18T09:16:04.111Z,30.00
2022-10-18T09:17:04.066Z,31.50
2022-10-18T09:18:04.069Z,25.70
2022-10-18T09:19:04.047Z,28.00
2022-10-18T09:20:04.015Z,26.20
2022-10-18T09:21:04.057Z,24.90
2022-10-18T09:22:06.255Z,23.60
2022-10-18T09:23:04.991Z,32.10
2022-10-18T09:24:04.097Z,25.50
2022-10-18T09:25:04.005Z,36.10
2022-10-18T09:26:03.966Z,33.80
2022-10-18T09:27:04.331Z,27.90
2022-10-18T09:28:04.000Z,26.90
2022-10-18T09:29:04.247Z,27.80
2022-10-18T09:30:03.975Z,36.30
2022-10-18T09:31:03.869Z,25.40
2022-10-18T09:32:03.943Z,22.70
2022-10-18T09:33:03.892Z,28.70
2022-10-18T09:34:03.983Z,25.20
2022-10-18T09:35:03.789Z,26.10
2022-10-18T09:36:03.816Z,30.40
2022-10-18T09:37:04.119Z,39.60
2022-10-18T09:38:03.769Z,26.40
2022-10-18T09:39:03.898Z,35.60
2022-10-18T09:40:04.042Z,29.60
2022-10-18T09:41:03.804Z,31.40
2022-10-18T09:42:03.757Z,25.00
2022-10-18T09:43:03.991Z,28.90
2022-10-18T09:44:03.782Z,30.20
2022-10-18T09:45:04.652Z,29.90
2022-10-18T09:46:03.727Z,26.50
2022-10-18T09:47:03.727Z,28.20
2022-10-18T09:48:03.677Z,25.60
2022-10-18T09:49:03.630Z,23.60
2022-10-18T09:50:03.644Z,22.50
2022-10-18T09:51:03.720Z,21.60
2022-10-18T09:52:03.593Z,20.70
2022-10-18T09:53:03.563Z,21.10
2022-10-18T09:54:03.670Z,21.10
2022-10-18T09:55:03.609Z,24.40
2022-10-18T09:56:03.950Z,24.00
2022-10-18T09:57:03.621Z,27.10
2022-10-18T09:58:03.611Z,24.10
2022-10-18T09:59:03.485Z,29.10
2022-10-18T10:00:04.426Z,25.10
2022-10-18T10:01:03.620Z,26.50
2022-10-18T10:02:03.563Z,25.10
2022-10-18T10:03:03.557Z,20.00
2022-10-18T10:04:03.510Z,21.60
2022-10-18T10:05:03.481Z,17.60
2022-10-18T10:06:03.455Z,19.30
2022-10-18T10:07:03.360Z,16.10
2022-10-18T10:08:03.479Z,18.80
2022-10-18T10:09:03.372Z,18.50
2022-10-18T10:10:03.438Z,19.70
2022-10-18T10:11:03.289Z,16.50
2022-10-18T10:12:03.521Z,14.90
2022-10-18T10:13:03.520Z,16.50
2022-10-18T10:14:03.859Z,18.80
2022-10-18T10:15:03.293Z,15.10
2022-10-18T10:16:03.260Z,20.70
2022-10-18T10:17:03.223Z,20.20
2022-10-18T10:18:03.481Z,16.70
2022-10-18T10:19:03.222Z,13.60
2022-10-18T10:20:03.322Z,12.20
2022-10-18T10:21:03.153Z,12.60
2022-10-18T10:22:03.204Z,12.70
2022-10-18T10:23:03.132Z,12.70
2022-10-18T10:24:03.206Z,11.50
2022-10-18T10:25:03.103Z,15.70
2022-10-18T10:26:03.351Z,12.80
2022-10-18T10:27:03.247Z,14.10
2022-10-18T10:28:03.075Z,14.10
2022-10-18T10:29:03.836Z,18.20
2022-10-18T10:30:07.076Z,12.00
2022-10-18T10:31:03.179Z,13.30
2022-10-18T10:32:03.159Z,12.50
2022-10-18T10:33:03.872Z,11.80
2022-10-18T10:34:03.102Z,13.00
2022-10-18T10:35:02.948Z,10.70
2022-10-18T10:36:02.998Z,11.70
2022-10-18T10:37:02.967Z,15.10
2022-10-18T10:38:02.996Z,11.10
2022-10-18T10:39:03.061Z,10.30
2022-10-18T10:40:19.786Z,9.30
2022-10-18T10:41:04.070Z,9.60
2022-10-18T10:42:04.952Z,9.10
2022-10-18T10:43:18.424Z,9.40
2022-10-18T10:44:03.901Z,8.60
2022-10-18T10:45:02.842Z,8.90
2022-10-18T10:46:02.935Z,8.70
2022-10-18T10:47:02.822Z,8.10
2022-10-18T10:48:02.843Z,9.90
2022-10-18T10:50:03.840Z,8.20
2022-10-18T10:51:02.815Z,9.10
2022-10-18T10:52:09.245Z,7.20
2022-10-18T10:53:03.741Z,5.90
2022-10-18T10:54:03.022Z,6.30
2022-10-18T10:55:30.394Z,6.50
2022-10-18T10:56:03.974Z,6.60
2022-10-18T10:57:02.761Z,5.50
2022-10-18T10:58:02.675Z,5.70
2022-10-18T10:59:02.698Z,5.20
2022-10-18T11:00:02.763Z,3.90
2022-10-18T11:01:02.647Z,4.00
2022-10-18T11:02:02.693Z,3.20
2022-10-18T11:03:05.973Z,3.70
2022-10-18T11:04:03.686Z,3.50
2022-10-18T11:05:02.677Z,3.90
2022-10-18T11:06:02.854Z,3.50
2022-10-18T11:07:02.518Z,3.40
2022-10-18T11:08:02.582Z,2.50
2022-10-18T11:09:02.539Z,3.10
2022-10-18T11:10:02.478Z,3.00
2022-10-18T11:11:02.462Z,2.70
2022-10-18T11:12:02.500Z,2.80
2022-10-18T11:13:02.590Z,3.40
2022-10-18T11:14:21.094Z,3.50
2022-10-18T11:15:03.390Z,3.80
2022-10-18T11:16:04.051Z,4.20
2022-10-18T11:17:06.896Z,4.30
2022-10-18T11:18:04.204Z,4.70
2022-10-18T11:19:03.003Z,5.30
2022-10-18T11:20:02.894Z,5.30
2022-10-18T11:21:02.649Z,5.50
2022-10-18T11:22:02.850Z,5.90
2022-10-18T11:23:02.382Z,6.50
2022-10-18T11:24:02.293Z,6.80
2022-10-18T11:25:02.286Z,7.20
2022-10-18T11:26:02.303Z,7.70
2022-10-18T11:27:03.249Z,7.60
2022-10-18T11:28:02.505Z,8.60
2022-10-18T11:29:02.275Z,6.80
2022-10-18T11:30:02.255Z,7.10
2022-10-18T11:31:02.943Z,7.30
2022-10-18T11:32:02.412Z,6.60
2022-10-18T11:33:02.168Z,6.90
2022-10-18T11:34:10.310Z,7.30
2022-10-18T11:35:03.206Z,7.40
2022-10-18T11:36:03.944Z,6.90
2022-10-18T11:37:27.695Z,7.10
2022-10-18T11:38:03.338Z,6.90
2022-10-18T11:39:02.166Z,6.80
2022-10-18T11:40:02.104Z,6.50
2022-10-18T11:41:02.065Z,5.40
2022-10-18T11:42:02.068Z,5.80
2022-10-18T11:43:02.038Z,6.10
2022-10-18T11:44:03.558Z,5.10
2022-10-18T11:45:02.117Z,5.30
2022-10-18T11:46:02.126Z,4.70
2022-10-18T11:47:02.258Z,4.70
2022-10-18T11:48:02.053Z,4.50
2022-10-18T11:49:01.921Z,4.50
2022-10-18T11:50:02.006Z,4.90
2022-10-18T11:51:01.952Z,5.30
2022-10-18T11:52:09.487Z,4.90
2022-10-18T11:53:02.921Z,5.10
2022-10-18T11:54:02.311Z,4.40
2022-10-18T11:55:01.872Z,5.50
2022-10-18T11:56:01.899Z,5.40
2022-10-18T11:57:01.837Z,5.60
2022-10-18T11:58:01.895Z,6.60
2022-10-18T11:59:01.813Z,5.50
2022-10-18T12:00:01.782Z,6.20
2022-10-18T12:01:01.805Z,6.00
2022-10-18T12:02:01.847Z,5.80
2022-10-18T12:03:01.876Z,6.30
2022-10-18T12:04:01.885Z,6.10
2022-10-18T12:06:02.777Z,5.40
2022-10-18T12:07:01.770Z,5.10
2022-10-18T12:08:01.826Z,4.60
2022-10-18T12:09:02.539Z,4.70
2022-10-18T12:10:01.763Z,5.10
2022-10-18T12:11:06.131Z,4.50
2022-10-18T12:12:01.889Z,4.20
2022-10-18T12:13:01.620Z,4.60
2022-10-18T12:14:01.652Z,4.00
2022-10-18T12:15:01.625Z,4.00
2022-10-18T12:16:01.584Z,4.10
2022-10-18T12:17:27.999Z,4.60
2022-10-18T12:18:02.591Z,4.70
2022-10-18T12:19:01.557Z,4.50
2022-10-18T12:20:01.526Z,4.40
2022-10-18T12:21:01.579Z,4.50
2022-10-18T12:22:01.484Z,3.70
2022-10-18T12:23:01.635Z,4.50
2022-10-18T12:24:01.461Z,4.20
2022-10-18T12:25:01.448Z,4.10
2022-10-18T12:26:01.470Z,4.60
2022-10-18T12:27:01.555Z,4.30
2022-10-18T12:29:01.428Z,3.90
2022-10-18T12:30:01.446Z,4.30
2022-10-18T12:31:01.365Z,4.80
2022-10-18T12:32:01.369Z,4.90
2022-10-18T12:33:10.010Z,4.60
2022-10-18T12:34:02.468Z,4.50
2022-10-18T12:35:01.365Z,4.70
2022-10-18T12:36:01.309Z,4.20
2022-10-18T12:37:01.318Z,4.50
2022-10-18T12:38:01.339Z,4.60
2022-10-18T12:39:01.343Z,4.30
2022-10-18T12:40:11.510Z,4.50
2022-10-18T12:41:02.235Z,4.60
2022-10-18T12:42:01.267Z,4.60
2022-10-18T12:43:01.367Z,4.60
2022-10-18T12:44:01.174Z,5.40
2022-10-18T12:45:01.385Z,5.20
2022-10-18T12:46:01.243Z,4.90
2022-10-18T12:47:01.153Z,4.90
2022-10-18T12:48:01.152Z,4.90
2022-10-18T12:49:01.187Z,5.50
2022-10-18T12:50:01.090Z,5.40
2022-10-18T12:51:01.097Z,4.90
2022-10-18T12:52:01.102Z,5.60
2022-10-18T12:53:01.057Z,5.00
2022-10-18T12:54:01.065Z,5.30
2022-10-18T12:55:01.301Z,4.70
2022-10-18T12:56:01.960Z,5.00
2022-10-18T12:57:01.047Z,5.10
2022-10-18T12:58:00.975Z,4.10
2022-10-18T12:59:01.089Z,3.60
2022-10-18T13:00:01.079Z,3.70
2022-10-18T13:01:00.955Z,3.20
2022-10-18T13:02:01.202Z,3.80
2022-10-18T13:03:00.932Z,3.60
2022-10-18T13:04:00.923Z,3.20
2022-10-18T13:05:01.071Z,3.90
2022-10-18T13:06:04.233Z,3.70
2022-10-18T13:07:01.939Z,4.20
2022-10-18T13:08:00.904Z,4.40
2022-10-18T13:09:01.327Z,4.00
2022-10-18T13:10:01.248Z,4.80
2022-10-18T13:11:00.826Z,4.40
2022-10-18T13:12:02.076Z,4.50
2022-10-18T13:13:05.647Z,3.80
2022-10-18T13:14:01.929Z,3.90
2022-10-18T13:15:20.553Z,3.50
2022-10-18T13:16:01.757Z,4.00
2022-10-18T13:17:00.784Z,3.40
2022-10-18T13:18:00.744Z,4.10
2022-10-18T13:19:00.669Z,3.90
2022-10-18T13:20:24.110Z,3.90
2022-10-18T13:21:01.676Z,4.40
2022-10-18T13:22:00.632Z,4.10
2022-10-18T13:23:00.725Z,4.50
2022-10-18T13:24:00.664Z,4.40
2022-10-18T13:25:00.695Z,4.70
2022-10-18T13:26:00.643Z,4.20
2022-10-18T13:27:24.068Z,4.30
2022-10-18T13:28:01.629Z,3.90
2022-10-18T13:29:00.608Z,3.90
2022-10-18T13:30:00.607Z,3.80
2022-10-18T13:31:00.573Z,3.90
2022-10-18T13:32:00.566Z,4.10
2022-10-18T13:33:00.553Z,3.70
2022-10-18T13:34:00.592Z,3.60
2022-10-18T13:35:00.511Z,3.40
2022-10-18T13:36:00.529Z,4.30
2022-10-18T13:37:00.597Z,3.20
2022-10-18T13:38:00.424Z,3.20
2022-10-18T13:39:00.510Z,3.00
2022-10-18T13:40:00.534Z,3.30
2022-10-18T13:41:00.491Z,2.70
2022-10-18T13:42:01.392Z,3.30
2022-10-18T13:43:00.392Z,2.90
2022-10-18T13:44:00.735Z,3.20
2022-10-18T13:45:00.388Z,3.00
2022-10-18T13:46:00.336Z,2.90
2022-10-18T13:47:00.330Z,2.90
2022-10-18T13:48:00.378Z,3.30
2022-10-18T13:49:00.309Z,2.80
2022-10-18T13:50:00.283Z,2.80
2022-10-18T13:51:00.678Z,2.90
2022-10-18T13:52:00.712Z,3.10
2022-10-18T13:53:00.336Z,2.70
2022-10-18T13:54:00.233Z,2.90
2022-10-18T13:55:00.953Z,3.30